createdAt,value
2019-01-10T00:01:30.532Z,460.97
2019-01-10T00:11:32.340Z,530.53
2019-01-10T00:21:34.251Z,467.70
2019-01-10T00:31:35.853Z,691.97
2019-01-10T00:41:37.866Z,789.27
2019-01-10T00:51:39.360Z,573.60
2019-01-10T01:01:41.071Z,546.03
2019-01-10T01:11:42.877Z,491.87
2019-01-10T01:21:44.783Z,314.00
2019-01-10T01:31:46.385Z,301.40
2019-01-10T01:41:48.197Z,311.20
2019-01-10T01:51:49.693Z,347.40
2019-01-10T02:01:52.217Z,509.97
2019-01-10T02:11:53.920Z,704.17
2019-01-10T02:22:01.971Z,677.17
2019-01-10T02:32:03.963Z,738.87
2019-01-10T02:42:05.783Z,701.97
2019-01-10T02:52:07.601Z,606.63
2019-01-10T03:02:09.308Z,669.17
2019-01-10T03:12:11.318Z,682.67
2019-01-10T03:22:16.914Z,720.60
2019-01-10T03:32:18.398Z,645.27
2019-01-10T03:42:20.322Z,586.67
2019-01-10T03:52:21.923Z,643.80
2019-01-10T04:02:23.491Z,598.17
2019-01-10T04:12:25.230Z,611.17
2019-01-10T04:22:30.514Z,575.03
2019-01-10T04:32:32.117Z,581.13
2019-01-10T04:42:33.925Z,570.80
2019-01-10T04:52:35.423Z,534.40
2019-01-10T05:02:36.928Z,498.37
2019-01-10T05:12:38.836Z,464.57
2019-01-10T05:22:40.538Z,408.73
2019-01-10T05:32:45.112Z,382.63
2019-01-10T05:42:46.917Z,363.13
2019-01-10T05:52:48.513Z,373.83
2019-01-10T06:02:50.121Z,362.93
2019-01-10T06:12:51.828Z,351.23
2019-01-10T06:22:53.429Z,345.80
2019-01-10T06:32:55.012Z,335.10
2019-01-10T06:42:56.736Z,317.57
2019-01-10T06:52:58.234Z,248.70
2019-01-10T07:02:59.732Z,175.20
2019-01-10T07:13:01.440Z,176.00
2019-01-10T07:23:06.725Z,140.37
2019-01-10T07:33:10.786Z,103.27
2019-01-10T07:43:19.454Z,185.23
2019-01-10T07:53:20.953Z,101.23
2019-01-10T08:03:22.559Z,131.27
2019-01-10T08:13:24.166Z,379.83
2019-01-10T08:23:25.760Z,757.73
2019-01-10T08:33:27.263Z,358.97
2019-01-10T08:43:29.024Z,124.73
2019-01-10T08:53:30.564Z,79.97
2019-01-10T09:03:32.105Z,151.87
2019-01-10T09:13:34.076Z,87.17
2019-01-10T09:23:35.991Z,94.73
2019-01-10T09:33:39.672Z,90.80
2019-01-10T09:43:41.033Z,80.77
2019-01-10T09:53:42.637Z,373.90
2019-01-10T10:03:44.134Z,178.50
2019-01-10T10:13:45.946Z,107.33
2019-01-10T10:23:47.660Z,98.27
2019-01-10T10:33:49.158Z,96.43
2019-01-10T10:43:51.365Z,87.80
2019-01-10T10:53:52.850Z,102.20
2019-01-10T11:03:54.774Z,115.43
2019-01-10T11:13:56.478Z,107.30
2019-01-10T11:23:58.184Z,121.97
2019-01-10T11:33:59.681Z,130.43
2019-01-10T11:44:01.384Z,134.83
2019-01-10T11:54:03.398Z,107.10
2019-01-10T12:04:05.106Z,127.07
2019-01-10T12:14:06.918Z,122.97
2019-01-10T12:24:12.407Z,106.90
2019-01-10T12:34:13.905Z,119.03
2019-01-10T12:44:15.609Z,138.73
2019-01-10T12:54:17.208Z,133.93
2019-01-10T13:04:18.813Z,128.30
2019-01-10T13:14:20.516Z,130.83
2019-01-10T13:24:22.228Z,142.40
2019-01-10T13:34:23.721Z,144.80
2019-01-10T13:44:25.426Z,156.60
2019-01-10T13:54:27.038Z,138.83
2019-01-10T14:04:28.630Z,155.50
2019-01-10T14:14:30.254Z,145.63
2019-01-10T14:24:34.158Z,158.93
2019-01-10T14:34:35.902Z,141.50
2019-01-10T14:44:37.868Z,167.07
2019-01-10T14:54:39.609Z,161.63
2019-01-10T15:04:41.314Z,154.87
2019-01-10T15:14:44.042Z,151.57
2019-01-10T15:24:45.748Z,145.90
2019-01-10T15:34:48.373Z,154.73
2019-01-10T15:44:49.974Z,171.37
2019-01-10T15:54:51.474Z,159.83
2019-01-10T16:04:53.094Z,159.93
2019-01-10T16:14:54.989Z,176.07
2019-01-10T16:24:56.903Z,152.10
2019-01-10T16:34:58.574Z,148.03
2019-01-10T16:45:00.610Z,150.90
2019-01-10T16:55:03.343Z,162.00
2019-01-10T17:05:05.238Z,170.67
2019-01-10T17:15:10.342Z,169.97
2019-01-10T17:25:12.973Z,158.07
2019-01-10T17:46:10.781Z,194.83
2019-01-10T17:56:12.354Z,167.87
2019-01-10T18:06:13.948Z,126.83
2019-01-10T18:16:16.780Z,157.07
2019-01-10T18:26:19.630Z,132.03
2019-01-10T18:36:21.417Z,118.67
2019-01-10T18:46:25.157Z,85.80
2019-01-10T18:56:26.771Z,89.47
2019-01-10T19:06:28.373Z,120.57
2019-01-10T19:16:30.218Z,121.67
2019-01-10T19:26:31.933Z,134.07
2019-01-10T19:36:33.591Z,129.17
2019-01-10T19:46:35.818Z,143.73
2019-01-10T19:56:37.612Z,147.97
2019-01-10T20:06:39.620Z,169.40
2019-01-10T20:16:41.637Z,135.53
2019-01-10T20:26:51.429Z,947.37
2019-01-10T20:36:53.076Z,638.37
2019-01-10T20:46:55.146Z,1999.90
2019-01-10T20:56:57.877Z,361.17
2019-01-10T21:06:59.679Z,1791.33
2019-01-10T21:17:01.786Z,1072.93
2019-01-10T21:27:07.593Z,447.50
2019-01-10T21:37:09.094Z,215.27
2019-01-10T21:47:11.103Z,166.90
2019-01-10T21:57:12.712Z,123.53
2019-01-10T22:07:14.309Z,187.63
2019-01-10T22:17:16.221Z,361.97
2019-01-10T22:27:17.928Z,206.93
2019-01-10T22:37:19.405Z,144.83
2019-01-10T22:47:21.136Z,179.97
2019-01-10T22:57:22.638Z,137.73
2019-01-10T23:07:24.129Z,143.13
2019-01-10T23:17:32.756Z,141.80
2019-01-10T23:27:34.503Z,152.57
2019-01-10T23:37:37.027Z,157.50
2019-01-10T23:47:38.844Z,150.97
2019-01-10T23:57:40.334Z,129.67
